createdAt,value
2023-05-06T00:00:03.402Z,85.2
2023-05-06T00:03:03.436Z,85.2
2023-05-06T00:06:03.130Z,85.2
2023-05-06T00:09:03.103Z,85.2
2023-05-06T00:12:03.438Z,85.2
2023-05-06T00:15:03.180Z,85.2
2023-05-06T00:18:03.385Z,85.2
2023-05-06T00:21:03.166Z,85.2
2023-05-06T00:24:03.272Z,85.2
2023-05-06T00:27:03.187Z,85.2
2023-05-06T00:30:03.308Z,85.2
2023-05-06T00:33:03.271Z,85.2
2023-05-06T00:36:03.170Z,85.2
2023-05-06T00:39:03.156Z,85.2
2023-05-06T00:42:03.189Z,85.2
2023-05-06T00:45:03.118Z,85.2
2023-05-06T00:48:03.367Z,85.2
2023-05-06T00:51:03.251Z,85.2
2023-05-06T00:54:03.181Z,85.2
2023-05-06T00:57:03.177Z,85.2
2023-05-06T01:00:03.423Z,85.2
2023-05-06T01:03:03.468Z,85.2
2023-05-06T01:06:03.148Z,85.2
2023-05-06T01:09:03.073Z,85.2
2023-05-06T01:12:03.146Z,85.2
2023-05-06T01:15:03.376Z,85.2
2023-05-06T01:18:03.306Z,85.2
2023-05-06T01:21:03.154Z,85.2
2023-05-06T01:24:03.587Z,85.2
2023-05-06T01:27:03.192Z,85.2
2023-05-06T01:30:03.236Z,85.2
2023-05-06T01:33:03.299Z,85.2
2023-05-06T01:36:03.141Z,85.2
2023-05-06T01:39:03.216Z,85.2
2023-05-06T01:42:03.204Z,87.2
2023-05-06T01:45:03.163Z,87.2
2023-05-06T01:48:03.286Z,87.2
2023-05-06T01:51:03.148Z,87.2
2023-05-06T01:54:03.170Z,87.2
2023-05-06T01:57:03.179Z,87.2
2023-05-06T02:00:03.281Z,87.2
2023-05-06T02:03:03.394Z,87.2
2023-05-06T02:06:03.258Z,87.2
2023-05-06T02:09:03.114Z,87.2
2023-05-06T02:12:03.265Z,87.2
2023-05-06T02:15:03.416Z,87.2
2023-05-06T02:18:04.292Z,87.2
2023-05-06T02:21:03.161Z,87.2
2023-05-06T02:24:03.222Z,87.2
2023-05-06T02:27:03.158Z,87.2
2023-05-06T02:30:03.219Z,87.2
2023-05-06T02:33:03.367Z,87.2
2023-05-06T02:36:03.222Z,87.2
2023-05-06T02:39:03.230Z,87.2
2023-05-06T02:42:03.185Z,87.2
2023-05-06T02:45:03.332Z,87.2
2023-05-06T02:48:03.390Z,87.2
2023-05-06T02:51:03.118Z,87.2
2023-05-06T02:54:03.243Z,87.2
2023-05-06T02:57:03.176Z,87.2
2023-05-06T03:00:03.219Z,87.2
2023-05-06T03:03:03.221Z,87.2
2023-05-06T03:06:03.268Z,87.2
2023-05-06T03:09:03.155Z,87.2
2023-05-06T03:12:03.083Z,88.5
2023-05-06T03:15:03.152Z,88.5
2023-05-06T03:18:03.278Z,88.5
2023-05-06T03:21:03.285Z,88.5
2023-05-06T03:24:03.156Z,88.5
2023-05-06T03:27:03.168Z,88.5
2023-05-06T03:30:03.377Z,88.5
2023-05-06T03:33:03.290Z,88.5
2023-05-06T03:36:03.139Z,88.5
2023-05-06T03:39:03.165Z,88.5
2023-05-06T03:42:03.214Z,88.5
2023-05-06T03:45:03.154Z,88.5
2023-05-06T03:48:03.273Z,88.5
2023-05-06T03:51:03.361Z,88.5
2023-05-06T03:54:03.209Z,88.5
2023-05-06T03:57:03.168Z,88.5
2023-05-06T04:00:03.455Z,88.5
2023-05-06T04:03:03.494Z,88.5
2023-05-06T04:06:03.192Z,88.5
2023-05-06T04:09:03.161Z,88.4
2023-05-06T04:12:03.224Z,88.4
2023-05-06T04:15:03.157Z,88.4
2023-05-06T04:18:03.250Z,88.4
2023-05-06T04:21:03.188Z,88.4
2023-05-06T04:24:03.256Z,88.4
2023-05-06T04:27:03.138Z,88.4
2023-05-06T04:30:03.350Z,88.4
2023-05-06T04:33:03.271Z,88.4
2023-05-06T04:36:03.199Z,88.4
2023-05-06T04:39:03.122Z,88.4
2023-05-06T04:42:03.151Z,88.4
2023-05-06T04:45:03.135Z,88.4
2023-05-06T04:48:03.226Z,88.4
2023-05-06T04:51:03.095Z,88.4
2023-05-06T04:54:03.122Z,87.9
2023-05-06T04:57:03.143Z,87.9
2023-05-06T05:00:03.431Z,87.9
2023-05-06T05:03:03.403Z,87.9
2023-05-06T05:06:03.143Z,87.9
2023-05-06T05:09:03.108Z,87.9
2023-05-06T05:12:03.220Z,87.9
2023-05-06T05:15:03.166Z,87.9
2023-05-06T05:18:03.354Z,87.9
2023-05-06T05:21:03.132Z,87.9
2023-05-06T05:24:03.122Z,87
2023-05-06T05:27:03.157Z,87
2023-05-06T05:30:03.410Z,87
2023-05-06T05:33:03.406Z,87
2023-05-06T05:36:03.247Z,87
2023-05-06T05:39:03.220Z,87
2023-05-06T05:42:03.148Z,87
2023-05-06T05:45:03.125Z,87
2023-05-06T05:48:03.360Z,87
2023-05-06T05:51:03.100Z,87
2023-05-06T05:54:03.438Z,87
2023-05-06T05:57:03.213Z,87
2023-05-06T06:00:03.634Z,87
2023-05-06T06:03:03.678Z,87
2023-05-06T06:06:03.152Z,87
2023-05-06T06:09:03.135Z,87
2023-05-06T06:12:03.167Z,86.1
2023-05-06T06:15:03.209Z,86.1
2023-05-06T06:18:03.366Z,86.1
2023-05-06T06:21:03.167Z,86.1
2023-05-06T06:24:03.101Z,86.1
2023-05-06T06:27:03.158Z,86.1
2023-05-06T06:30:03.214Z,86.1
2023-05-06T06:33:03.353Z,85.5
2023-05-06T06:36:03.158Z,85.5
2023-05-06T06:39:03.289Z,85.5
2023-05-06T06:42:03.145Z,85.5
2023-05-06T06:45:03.153Z,85.5
2023-05-06T06:48:03.249Z,85.5
2023-05-06T06:51:03.106Z,85.5
2023-05-06T06:54:03.090Z,85.5
2023-05-06T06:57:03.157Z,85.5
2023-05-06T07:00:04.020Z,85.5
2023-05-06T07:03:03.306Z,85.5
2023-05-06T07:06:03.125Z,85.5
2023-05-06T07:09:03.118Z,85.5
2023-05-06T07:12:03.150Z,85.5
2023-05-06T07:15:03.149Z,85
2023-05-06T07:18:03.215Z,85
2023-05-06T07:21:03.173Z,85
2023-05-06T07:24:03.102Z,85
2023-05-06T07:27:03.143Z,85
2023-05-06T07:30:03.122Z,85
2023-05-06T07:33:03.351Z,85
2023-05-06T07:36:03.174Z,85
2023-05-06T07:39:03.231Z,85
2023-05-06T07:42:03.098Z,85
2023-05-06T07:45:03.160Z,85
2023-05-06T07:48:03.307Z,85.2
2023-05-06T07:51:03.172Z,85.2
2023-05-06T07:54:03.165Z,85.2
2023-05-06T07:57:03.198Z,85.2
2023-05-06T08:00:03.126Z,85.2
2023-05-06T08:03:03.452Z,85.2
2023-05-06T08:06:03.154Z,85.2
2023-05-06T08:09:03.143Z,85.2
2023-05-06T08:12:03.189Z,85.2
2023-05-06T08:15:03.132Z,83.7
2023-05-06T08:18:24.581Z,83.7
2023-05-06T08:21:03.178Z,83.7
2023-05-06T08:24:03.162Z,83.7
2023-05-06T08:27:03.144Z,83.7
2023-05-06T08:30:03.246Z,83.7
2023-05-06T08:33:03.269Z,83.7
2023-05-06T08:36:03.114Z,83.7
2023-05-06T08:39:03.104Z,82.3
2023-05-06T08:42:03.172Z,82.3
2023-05-06T08:45:03.218Z,82.3
2023-05-06T08:48:03.238Z,82.3
2023-05-06T08:51:03.120Z,82.3
2023-05-06T08:54:03.430Z,82.3
2023-05-06T08:57:03.106Z,82.3
2023-05-06T09:00:03.205Z,82.3
2023-05-06T09:03:03.478Z,82.3
2023-05-06T09:06:03.144Z,82.3
2023-05-06T09:09:03.173Z,80.2
2023-05-06T09:12:03.176Z,80.2
2023-05-06T09:15:03.155Z,80.2
2023-05-06T09:18:03.325Z,80.2
2023-05-06T09:21:03.453Z,80.2
2023-05-06T09:24:03.208Z,80.2
2023-05-06T09:27:03.161Z,80.2
2023-05-06T09:30:03.385Z,80.2
2023-05-06T09:33:03.242Z,80.2
2023-05-06T09:36:03.139Z,78.7
2023-05-06T09:39:03.264Z,78.7
2023-05-06T09:42:03.081Z,78.7
2023-05-06T09:45:04.767Z,78.7
2023-05-06T09:48:03.498Z,78.7
2023-05-06T09:51:03.747Z,78.7
2023-05-06T09:54:03.264Z,78.7
2023-05-06T09:57:03.627Z,78.7
2023-05-06T10:00:03.238Z,75.4
2023-05-06T10:03:03.578Z,75.4
2023-05-06T10:06:03.385Z,75.4
2023-05-06T10:09:03.179Z,75.4
2023-05-06T10:12:03.091Z,75.4
2023-05-06T10:15:03.179Z,75.4
2023-05-06T10:18:03.253Z,75.4
2023-05-06T10:21:03.111Z,75.4
2023-05-06T10:24:03.123Z,75.4
2023-05-06T10:27:03.144Z,74.6
2023-05-06T10:30:03.324Z,74.6
2023-05-06T10:33:03.272Z,74.6
2023-05-06T10:36:03.213Z,74.6
2023-05-06T10:39:03.063Z,74.6
2023-05-06T10:42:03.091Z,73
2023-05-06T10:45:03.242Z,73
2023-05-06T10:48:03.162Z,73
2023-05-06T10:51:03.165Z,73
2023-05-06T10:54:03.162Z,73
2023-05-06T10:57:03.138Z,73
2023-05-06T11:00:03.264Z,73
2023-05-06T11:03:03.335Z,73
2023-05-06T11:06:03.135Z,73
2023-05-06T11:09:03.158Z,73
2023-05-06T11:12:03.105Z,73
2023-05-06T11:15:03.107Z,73
2023-05-06T11:18:03.350Z,73
2023-05-06T11:21:03.517Z,73
2023-05-06T11:24:03.148Z,73
2023-05-06T11:27:03.089Z,73
2023-05-06T11:30:03.252Z,73
2023-05-06T11:33:07.296Z,73
2023-05-06T11:36:03.190Z,73
2023-05-06T11:39:07.265Z,73
2023-05-06T11:42:03.211Z,73
2023-05-06T11:45:03.179Z,73
2023-05-06T11:48:03.334Z,73
2023-05-06T11:51:03.093Z,73
2023-05-06T11:54:03.104Z,73
2023-05-06T11:57:03.181Z,73
2023-05-06T12:00:03.209Z,73
2023-05-06T12:03:03.249Z,68.4
2023-05-06T12:06:03.149Z,68.4
2023-05-06T12:09:03.212Z,68.4
2023-05-06T12:12:03.173Z,68.4
2023-05-06T12:15:03.142Z,68.4
2023-05-06T12:18:03.326Z,68.4
2023-05-06T12:21:03.158Z,68.4
2023-05-06T12:24:03.299Z,68.4
2023-05-06T12:27:03.088Z,68.4
2023-05-06T12:30:03.197Z,68.4
2023-05-06T12:33:03.521Z,68.4
2023-05-06T12:36:03.166Z,68.4
2023-05-06T12:39:03.394Z,68.4
2023-05-06T12:42:03.103Z,68.4
2023-05-06T12:45:03.140Z,68.4
2023-05-06T12:48:03.403Z,68.4
2023-05-06T12:51:03.124Z,68.4
2023-05-06T12:54:03.146Z,68.4
2023-05-06T12:57:03.170Z,68.4
2023-05-06T13:00:03.221Z,68.4
2023-05-06T13:03:03.453Z,68.4
2023-05-06T13:06:03.230Z,68.4
2023-05-06T13:09:03.203Z,68.4
2023-05-06T13:12:03.163Z,68.4
2023-05-06T13:15:03.178Z,68.4
2023-05-06T13:18:03.282Z,68.4
2023-05-06T13:21:03.232Z,68.4
2023-05-06T13:24:03.174Z,68.4
2023-05-06T13:27:03.641Z,68.4
2023-05-06T13:30:03.196Z,68.4
2023-05-06T13:33:03.273Z,68.4
2023-05-06T13:36:06.234Z,68.4
2023-05-06T13:39:03.345Z,68.4
2023-05-06T13:42:03.736Z,68.4
2023-05-06T13:45:03.139Z,68.4
2023-05-06T13:48:03.313Z,68.4
2023-05-06T13:51:03.124Z,68.4
2023-05-06T13:54:03.095Z,68.4
2023-05-06T13:57:03.225Z,68.4
2023-05-06T14:00:03.280Z,68.4
2023-05-06T14:03:03.381Z,68.4
2023-05-06T14:06:03.149Z,68.4
2023-05-06T14:09:03.122Z,68.4
2023-05-06T14:12:03.187Z,68.4
2023-05-06T14:15:03.204Z,68.4
2023-05-06T14:18:03.348Z,68.4
2023-05-06T14:21:03.177Z,68.4
2023-05-06T14:24:03.702Z,68.4
2023-05-06T14:27:03.342Z,68.4
2023-05-06T14:30:03.162Z,68.4
2023-05-06T14:33:03.265Z,68.4
2023-05-06T14:36:03.118Z,68.4
2023-05-06T14:39:03.170Z,68.4
2023-05-06T14:42:03.201Z,68.4
2023-05-06T14:45:03.159Z,68.4
2023-05-06T14:48:03.393Z,68.4
2023-05-06T14:51:03.150Z,68.4
2023-05-06T14:54:03.146Z,68.4
2023-05-06T14:57:03.147Z,68.4
2023-05-06T15:00:03.523Z,68.4
2023-05-06T15:03:03.330Z,68.4
2023-05-06T15:06:03.531Z,68.4
2023-05-06T15:09:03.139Z,68.4
2023-05-06T15:12:03.068Z,68.4
2023-05-06T15:15:03.140Z,68.4
2023-05-06T15:18:03.412Z,68.4
2023-05-06T15:21:03.158Z,68.4
2023-05-06T15:24:03.052Z,68.4
2023-05-06T15:27:03.169Z,68.4
2023-05-06T15:30:03.201Z,68.4
2023-05-06T15:33:03.388Z,68.4
2023-05-06T15:36:03.235Z,68.4
2023-05-06T15:39:03.491Z,68.4
2023-05-06T15:42:03.249Z,68.4
2023-05-06T15:45:03.390Z,68.4
2023-05-06T15:48:03.239Z,68.4
2023-05-06T15:51:03.219Z,68.4
2023-05-06T15:57:05.091Z,68.4
2023-05-06T16:00:03.285Z,68.4
2023-05-06T16:03:03.579Z,70.8
2023-05-06T16:06:04.357Z,70.8
2023-05-06T16:09:03.448Z,70.8
2023-05-06T16:12:03.116Z,70.8
2023-05-06T16:15:03.119Z,70.8
2023-05-06T16:18:03.334Z,70.8
2023-05-06T16:21:03.189Z,70.8
2023-05-06T16:24:03.170Z,70.8
2023-05-06T16:27:03.140Z,70.8
2023-05-06T16:30:03.347Z,72
2023-05-06T16:33:03.335Z,72
2023-05-06T16:36:03.250Z,72
2023-05-06T16:39:03.098Z,72
2023-05-06T16:42:03.135Z,72
2023-05-06T16:45:03.175Z,72.3
2023-05-06T16:48:03.430Z,72.3
2023-05-06T16:51:03.122Z,72.3
2023-05-06T16:54:03.117Z,72.3
2023-05-06T16:57:03.192Z,73.8
2023-05-06T17:00:03.326Z,73.8
2023-05-06T17:03:03.697Z,73.8
2023-05-06T17:06:03.157Z,73.8
2023-05-06T17:09:03.112Z,73.8
2023-05-06T17:12:03.164Z,74.4
2023-05-06T17:15:03.155Z,74.4
2023-05-06T17:18:03.383Z,74.4
2023-05-06T17:21:03.188Z,74.4
2023-05-06T17:24:03.170Z,74.4
2023-05-06T17:27:03.998Z,74.4
2023-05-06T17:30:03.224Z,74.4
2023-05-06T17:33:03.232Z,74.4
2023-05-06T17:36:03.159Z,74.4
2023-05-06T17:39:03.181Z,74.4
2023-05-06T17:42:03.172Z,74.4
2023-05-06T17:45:03.103Z,74.4
2023-05-06T17:48:03.263Z,74.4
2023-05-06T17:51:03.117Z,74.4
2023-05-06T17:54:03.093Z,74.4
2023-05-06T17:57:03.136Z,74.3
2023-05-06T18:00:03.240Z,74.3
2023-05-06T18:03:03.415Z,74.3
2023-05-06T18:06:03.275Z,74.3
2023-05-06T18:09:03.099Z,74.3
2023-05-06T18:12:03.179Z,74.3
2023-05-06T18:15:03.241Z,74.3
2023-05-06T18:18:03.383Z,75.1
2023-05-06T18:21:03.115Z,75.1
2023-05-06T18:24:18.333Z,75.1
2023-05-06T18:27:03.141Z,75.1
2023-05-06T18:30:03.465Z,75.1
2023-05-06T18:33:03.222Z,75.1
2023-05-06T18:36:03.221Z,75.1
2023-05-06T18:39:03.156Z,75.1
2023-05-06T18:42:03.158Z,75.1
2023-05-06T18:45:03.232Z,75.1
2023-05-06T18:48:03.408Z,76.2
2023-05-06T18:51:03.117Z,76.2
2023-05-06T18:54:03.125Z,76.2
2023-05-06T18:57:03.357Z,76.2
2023-05-06T19:00:03.234Z,76.2
2023-05-06T19:03:03.220Z,76.2
2023-05-06T19:06:03.129Z,76.5
2023-05-06T19:09:03.151Z,76.5
2023-05-06T19:12:03.128Z,76.5
2023-05-06T19:15:03.187Z,76.5
2023-05-06T19:18:03.221Z,76.5
2023-05-06T19:21:03.120Z,76.5
2023-05-06T19:24:03.176Z,76.5
2023-05-06T19:27:03.093Z,77.3
2023-05-06T19:30:03.249Z,77.3
2023-05-06T19:33:03.312Z,77.3
2023-05-06T19:36:03.162Z,77.3
2023-05-06T19:39:03.152Z,77.3
2023-05-06T19:42:03.206Z,77.3
2023-05-06T19:45:03.124Z,77.3
2023-05-06T19:48:03.294Z,77.3
2023-05-06T19:51:03.114Z,77.9
2023-05-06T19:54:03.116Z,77.9
2023-05-06T19:57:03.218Z,77.9
2023-05-06T20:00:03.320Z,77.9
2023-05-06T20:03:03.517Z,77.9
2023-05-06T20:06:03.975Z,77.9
2023-05-06T20:09:03.225Z,77.9
2023-05-06T20:12:03.179Z,77.9
2023-05-06T20:15:03.275Z,78.2
2023-05-06T20:18:03.338Z,78.2
2023-05-06T20:21:03.192Z,78.2
2023-05-06T20:24:03.200Z,78.2
2023-05-06T20:27:03.160Z,78.2
2023-05-06T20:30:03.400Z,78.2
2023-05-06T20:33:03.310Z,78.2
2023-05-06T20:36:03.123Z,78.2
2023-05-06T20:39:03.316Z,78.2
2023-05-06T20:42:03.136Z,78.2
2023-05-06T20:45:03.463Z,78.2
2023-05-06T20:48:03.323Z,78.2
2023-05-06T20:51:03.222Z,78.2
2023-05-06T20:54:03.611Z,79.4
2023-05-06T20:57:03.159Z,79.4
2023-05-06T21:00:03.265Z,79.4
2023-05-06T21:03:03.557Z,79.4
2023-05-06T21:06:03.174Z,79.4
2023-05-06T21:09:03.105Z,79.4
2023-05-06T21:12:03.165Z,79.4
2023-05-06T21:15:03.171Z,79.4
2023-05-06T21:18:03.426Z,79.4
2023-05-06T21:21:03.164Z,79.4
2023-05-06T21:24:03.184Z,79.4
2023-05-06T21:27:03.172Z,79.4
2023-05-06T21:30:03.325Z,81.3
2023-05-06T21:33:03.289Z,81.3
2023-05-06T21:36:03.179Z,81.3
2023-05-06T21:39:03.220Z,81.3
2023-05-06T21:42:03.204Z,81.3
2023-05-06T21:45:03.195Z,81.3
2023-05-06T21:48:03.309Z,81.3
2023-05-06T21:51:03.184Z,81.3
2023-05-06T21:54:03.191Z,81.3
2023-05-06T21:57:03.174Z,81.3
2023-05-06T22:00:04.057Z,81.3
2023-05-06T22:03:03.422Z,81.3
2023-05-06T22:06:03.205Z,81.3
2023-05-06T22:09:03.304Z,81.3
2023-05-06T22:12:03.157Z,81.3
2023-05-06T22:15:03.224Z,81.3
2023-05-06T22:18:03.489Z,81.3
2023-05-06T22:21:03.219Z,81.3
2023-05-06T22:24:03.165Z,82.5
2023-05-06T22:27:03.187Z,82.5
2023-05-06T22:30:03.264Z,82.5
2023-05-06T22:33:03.315Z,82.5
2023-05-06T22:36:03.230Z,82.5
2023-05-06T22:39:03.146Z,82.5
2023-05-06T22:42:03.608Z,82.5
2023-05-06T22:45:03.097Z,82.5
2023-05-06T22:48:03.362Z,82.5
2023-05-06T22:51:03.074Z,82.5
2023-05-06T22:54:03.208Z,82.5
2023-05-06T22:57:03.176Z,82.5
2023-05-06T23:00:03.447Z,82.5
2023-05-06T23:03:03.325Z,82.5
2023-05-06T23:06:03.142Z,82.5
2023-05-06T23:09:03.189Z,82.5
2023-05-06T23:12:03.114Z,82.5
2023-05-06T23:15:03.190Z,82.5
2023-05-06T23:18:03.323Z,82.5
2023-05-06T23:21:03.291Z,82.5
2023-05-06T23:24:03.166Z,82.5
2023-05-06T23:27:03.141Z,82.5
2023-05-06T23:30:03.185Z,82.5
2023-05-06T23:33:03.328Z,82.5
2023-05-06T23:36:03.252Z,82.5
2023-05-06T23:39:03.215Z,82.5
2023-05-06T23:42:03.190Z,82.5
2023-05-06T23:45:03.245Z,82.5
2023-05-06T23:48:03.368Z,82.5
2023-05-06T23:51:03.197Z,82.5
2023-05-06T23:54:03.113Z,82.5
2023-05-06T23:57:03.290Z,82.5
